Time;durP1;ratioP1;P1;durP2;ratioP2;P2;SDS_P1;SDS_P2;PMS_P1;PMS_P2;Temp;Humidity;BMP_temperature;BMP_pressure;BME280_temperature;BME280_humidity;BME280_pressure;Samples;Min_cycle;Max_cycle;Signal;HPM_P1;HPM_P2
2022/01/10 00:00:11;;;;;;;13.07;3.22;;;5.40;99.90;;;;;;5035622;28;20132;-87
2022/01/10 00:02:37;;;;;;;15.90;3.20;;;5.30;99.80;;;;;;5035920;28;20049;-87
2022/01/10 00:05:04;;;;;;;24.30;4.40;;;5.20;99.90;;;;;;5035957;28;20068;-87
2022/01/10 00:07:29;;;;;;;15.02;3.38;;;5.30;99.90;;;;;;5035513;28;20047;-87
2022/01/10 00:09:55;;;;;;;19.98;3.97;;;5.30;99.90;;;;;;5035819;28;20399;-88
2022/01/10 00:12:21;;;;;;;13.45;3.58;;;5.30;99.90;;;;;;5035589;28;20083;-87
2022/01/10 00:14:47;;;;;;;13.48;3.25;;;5.30;99.90;;;;;;5034553;28;20145;-88
2022/01/10 00:17:12;;;;;;;15.00;3.30;;;5.30;99.90;;;;;;5035643;28;20124;-87
2022/01/10 00:19:38;;;;;;;18.20;3.75;;;5.20;99.90;;;;;;5035724;28;20081;-87
2022/01/10 00:22:07;;;;;;;15.35;3.55;;;5.20;99.90;;;;;;5035514;28;20094;-87
2022/01/10 00:24:33;;;;;;;17.70;3.92;;;5.20;99.90;;;;;;5035824;28;20060;-86
2022/01/10 00:26:59;;;;;;;22.05;4.32;;;5.20;99.90;;;;;;5036601;28;20052;-87
2022/01/10 00:29:25;;;;;;;15.15;3.92;;;5.20;99.90;;;;;;5034718;28;20476;-87
2022/01/10 00:31:51;;;;;;;12.05;3.35;;;5.10;99.80;;;;;;5034896;28;20122;-87
2022/01/10 00:34:17;;;;;;;15.45;2.97;;;5.20;99.90;;;;;;5018829;28;20048;-87
2022/01/10 00:36:43;;;;;;;21.15;4.75;;;5.20;99.90;;;;;;5035807;28;20056;-87
2022/01/10 00:39:08;;;;;;;16.70;4.10;;;5.30;99.90;;;;;;5019032;28;20045;-87
2022/01/10 00:41:34;;;;;;;13.23;3.42;;;5.30;99.90;;;;;;5018903;28;20507;-87
2022/01/10 00:44:01;;;;;;;17.63;4.47;;;5.30;99.90;;;;;;5035068;28;20046;-87
2022/01/10 00:46:27;;;;;;;14.88;3.90;;;5.30;99.90;;;;;;5018819;28;20049;-86
2022/01/10 00:48:55;;;;;;;19.27;4.10;;;5.30;99.90;;;;;;5034971;28;20048;-86
2022/01/10 00:51:21;;;;;;;16.90;3.97;;;5.30;99.90;;;;;;5034809;28;20393;-86
2022/01/10 00:53:50;;;;;;;12.80;3.28;;;5.20;99.90;;;;;;5034984;28;20041;-86
2022/01/10 00:56:16;;;;;;;13.73;3.78;;;5.20;99.80;;;;;;5034912;28;20084;-86
2022/01/10 00:58:42;;;;;;;11.93;3.72;;;5.20;99.60;;;;;;5035411;28;20489;-86
2022/01/10 01:01:08;;;;;;;13.50;3.25;;;5.10;99.80;;;;;;5034458;28;20098;-86
2022/01/10 01:03:33;;;;;;;15.02;3.38;;;5.00;99.70;;;;;;5035165;28;20486;-86
2022/01/10 01:05:59;;;;;;;12.25;3.22;;;5.10;99.70;;;;;;5001725;28;20056;-86
2022/01/10 01:08:27;;;;;;;11.38;2.92;;;5.00;99.80;;;;;;5034321;28;20049;-86
2022/01/10 01:13:26;;;;;;;12.48;3.67;;;5.00;99.80;;;;;;5034140;28;20132;-86
2022/01/10 01:24:07;;;;;;;13.13;3.13;;;4.90;99.90;;;;;;5034244;28;20053;-86
2022/01/10 01:26:42;;;;;;;11.45;2.97;;;4.80;99.90;;;;;;5033419;28;20481;-85
2022/01/10 01:29:12;;;;;;;11.50;3.47;;;4.80;99.70;;;;;;5034167;28;20056;-85
2022/01/10 01:31:39;;;;;;;15.80;3.10;;;4.70;99.70;;;;;;5034173;28;20067;-86
2022/01/10 01:34:05;;;;;;;9.20;2.88;;;4.70;99.90;;;;;;5034549;28;20033;-86
2022/01/10 01:36:32;;;;;;;30.30;4.95;;;4.80;99.90;;;;;;5033927;28;20050;-86
2022/01/10 01:38:59;;;;;;;16.23;3.28;;;4.80;99.90;;;;;;5034490;28;20057;-86
2022/01/10 01:43:57;;;;;;;14.35;3.40;;;4.80;99.70;;;;;;5019193;28;20381;-85
2022/01/10 01:46:23;;;;;;;13.63;3.50;;;4.70;99.70;;;;;;5034384;28;20067;-85
2022/01/10 01:48:50;;;;;;;16.98;4.13;;;4.70;99.90;;;;;;5033683;28;20468;-86
2022/01/10 01:51:16;;;;;;;12.73;3.25;;;4.70;99.90;;;;;;5018367;28;20183;-85
2022/01/10 01:53:42;;;;;;;11.05;3.03;;;4.70;99.90;;;;;;5033242;28;20128;-86
2022/01/10 01:56:09;;;;;;;13.38;3.10;;;4.60;99.90;;;;;;5033591;28;20049;-86
2022/01/10 01:58:37;;;;;;;11.68;2.83;;;4.60;99.70;;;;;;5017039;28;20045;-84
2022/01/10 02:01:07;;;;;;;7.13;2.80;;;4.50;99.70;;;;;;5033535;28;20451;-86
2022/01/10 02:03:33;;;;;;;8.85;3.42;;;4.40;99.90;;;;;;5034466;28;20148;-86
2022/01/10 02:06:03;;;;;;;15.98;4.97;;;4.50;99.90;;;;;;5033294;28;20053;-86
2022/01/10 02:08:29;;;;;;;12.65;3.60;;;4.50;99.90;;;;;;5033712;28;20041;-86
2022/01/10 02:10:55;;;;;;;12.80;2.92;;;4.40;99.80;;;;;;5017320;28;20435;-86
2022/01/10 02:13:21;;;;;;;8.82;2.60;;;4.30;99.80;;;;;;5033134;28;20053;-86
2022/01/10 02:15:56;;;;;;;11.90;3.13;;;4.20;99.90;;;;;;5033410;28;20103;-86
2022/01/10 02:18:23;;;;;;;13.07;3.22;;;4.30;99.90;;;;;;5034072;28;20141;-86
2022/01/10 02:20:49;;;;;;;10.13;2.90;;;4.30;99.90;;;;;;5034337;28;20053;-86
2022/01/10 02:23:16;;;;;;;8.20;2.83;;;4.30;99.90;;;;;;5034884;28;20183;-86
2022/01/10 02:25:43;;;;;;;9.50;2.80;;;4.30;99.90;;;;;;5032988;28;20362;-85
2022/01/10 02:28:09;;;;;;;8.55;3.13;;;4.30;99.90;;;;;;5032797;28;20052;-85
2022/01/10 02:30:34;;;;;;;11.63;3.38;;;4.40;99.90;;;;;;5034689;28;20045;-86
2022/01/10 02:33:01;;;;;;;11.55;3.67;;;4.40;99.90;;;;;;5040118;28;20453;-85
2022/01/10 02:35:37;;;;;;;9.52;3.45;;;4.40;99.90;;;;;;5033669;28;20052;-85
2022/01/10 02:38:03;;;;;;;12.40;3.80;;;4.40;99.90;;;;;;5033533;28;20053;-85
2022/01/10 02:40:31;;;;;;;13.05;3.40;;;4.50;99.80;;;;;;5034742;28;20543;-85
2022/01/10 02:42:57;;;;;;;18.88;5.03;;;4.40;99.80;;;;;;5033215;28;20041;-86
2022/01/10 02:45:23;;;;;;;9.13;3.20;;;4.40;99.90;;;;;;5032981;28;20053;-85
2022/01/10 02:47:50;;;;;;;10.63;3.40;;;4.40;99.80;;;;;;5032481;28;20048;-85
2022/01/10 02:50:18;;;;;;;9.45;3.22;;;4.30;99.80;;;;;;5033179;28;20041;-85
2022/01/10 02:52:45;;;;;;;8.00;3.17;;;4.30;99.90;;;;;;5032677;28;20103;-85
2022/01/10 02:55:12;;;;;;;9.07;3.40;;;4.30;99.80;;;;;;5032612;28;20049;-85
2022/01/10 02:57:38;;;;;;;9.82;3.17;;;4.30;99.80;;;;;;5033127;28;20079;-85
2022/01/10 03:00:13;;;;;;;14.65;3.67;;;4.20;99.80;;;;;;5016446;28;20542;-85
2022/01/10 03:02:41;;;;;;;7.00;3.15;;;4.20;99.70;;;;;;5033144;28;20049;-85
2022/01/10 03:05:08;;;;;;;14.00;4.07;;;4.10;99.80;;;;;;5032913;28;20079;-85
2022/01/10 03:07:34;;;;;;;9.05;3.35;;;4.10;99.90;;;;;;5032630;28;20094;-86
2022/01/10 03:10:00;;;;;;;10.38;3.63;;;4.10;99.90;;;;;;5033103;28;20045;-86
2022/01/10 03:12:30;;;;;;;11.48;3.25;;;4.00;99.90;;;;;;5032985;28;20063;-85
2022/01/10 03:14:57;;;;;;;7.70;2.78;;;4.10;99.90;;;;;;5032701;28;20072;-85
2022/01/10 03:17:22;;;;;;;7.07;2.67;;;4.00;99.90;;;;;;5016353;28;20065;-85
2022/01/10 03:19:48;;;;;;;9.43;2.90;;;3.90;99.90;;;;;;5032867;28;20393;-86
2022/01/10 03:22:14;;;;;;;8.02;3.25;;;3.90;99.90;;;;;;5016379;28;20092;-85
2022/01/10 03:24:39;;;;;;;6.95;2.90;;;3.90;99.90;;;;;;5032433;28;20095;-85
2022/01/10 03:27:05;;;;;;;11.00;3.35;;;3.90;99.90;;;;;;5016154;28;20441;-85
2022/01/10 03:29:31;;;;;;;8.45;3.20;;;3.90;99.90;;;;;;5031787;28;20119;-85
2022/01/10 03:31:56;;;;;;;16.65;4.88;;;3.90;99.90;;;;;;5032395;28;20049;-85
2022/01/10 03:34:22;;;;;;;12.73;4.18;;;3.90;99.90;;;;;;5033201;28;20049;-85
2022/01/10 03:36:48;;;;;;;12.68;4.47;;;3.90;99.90;;;;;;5032478;28;20463;-85
2022/01/10 03:39:14;;;;;;;10.73;3.47;;;4.00;99.90;;;;;;5016171;28;20099;-85
2022/01/10 03:41:41;;;;;;;11.50;4.20;;;4.00;99.90;;;;;;5032491;28;20053;-85
2022/01/10 03:44:07;;;;;;;15.57;4.15;;;4.00;99.90;;;;;;5032128;28;20050;-85
2022/01/10 03:46:34;;;;;;;9.07;3.75;;;4.00;99.90;;;;;;5032309;28;20081;-85
2022/01/10 03:49:00;;;;;;;16.25;4.60;;;4.00;99.90;;;;;;5032319;28;20512;-85
2022/01/10 03:51:27;;;;;;;8.98;4.03;;;4.00;99.90;;;;;;5019295;28;20432;-85
2022/01/10 03:53:53;;;;;;;17.15;4.97;;;4.00;99.90;;;;;;5019450;28;20049;-85
2022/01/10 03:56:21;;;;;;;13.27;4.60;;;4.00;99.90;;;;;;5036467;28;20607;-85
2022/01/10 03:58:47;;;;;;;12.63;4.18;;;4.00;99.90;;;;;;5052301;28;20052;-85
2022/01/10 04:01:13;;;;;;;18.15;5.78;;;4.00;99.90;;;;;;5035254;28;20049;-85
2022/01/10 04:03:40;;;;;;;15.82;4.95;;;4.00;99.90;;;;;;5035671;28;20045;-85
2022/01/10 04:06:06;;;;;;;13.30;5.20;;;4.00;99.90;;;;;;5035550;28;20506;-85
2022/01/10 04:08:33;;;;;;;12.40;4.72;;;4.00;99.90;;;;;;5035512;28;20053;-86
2022/01/10 04:10:59;;;;;;;17.35;4.90;;;4.00;99.90;;;;;;5036064;28;20377;-86
2022/01/10 04:13:25;;;;;;;15.35;4.97;;;4.00;99.90;;;;;;5018706;28;20073;-86
2022/01/10 04:15:51;;;;;;;16.10;5.30;;;4.00;99.90;;;;;;5018832;28;20079;-86
2022/01/10 04:18:17;;;;;;;12.82;4.78;;;3.90;99.90;;;;;;5033147;28;20491;-85
2022/01/10 04:20:44;;;;;;;16.95;5.40;;;3.90;99.90;;;;;;5033555;28;20041;-86
2022/01/10 04:23:11;;;;;;;18.33;6.25;;;3.90;99.90;;;;;;5035596;28;20045;-85
2022/01/10 04:25:37;;;;;;;18.13;6.28;;;3.80;99.90;;;;;;5035099;28;20046;-85
2022/01/10 04:28:03;;;;;;;20.77;6.43;;;3.90;99.90;;;;;;5034816;28;20381;-85
2022/01/10 04:30:29;;;;;;;18.75;6.32;;;3.90;99.90;;;;;;5034560;28;20042;-86
2022/01/10 04:32:57;;;;;;;20.35;6.70;;;3.90;99.90;;;;;;5034941;28;20045;-85
2022/01/10 04:35:23;;;;;;;22.50;6.78;;;3.90;99.90;;;;;;5034916;28;20057;-85
2022/01/10 04:37:49;;;;;;;11.18;5.78;;;3.90;99.90;;;;;;5035260;28;20061;-86
2022/01/10 04:40:15;;;;;;;20.25;6.88;;;3.90;99.90;;;;;;5018812;28;20041;-85
2022/01/10 04:42:41;;;;;;;30.02;9.32;;;3.80;99.90;;;;;;5018697;28;20048;-85
2022/01/10 04:45:07;;;;;;;16.98;6.40;;;3.90;99.90;;;;;;5034717;28;20536;-86
2022/01/10 04:47:33;;;;;;;21.40;7.32;;;3.90;99.90;;;;;;5034453;28;20049;-85
2022/01/10 04:52:28;;;;;;;21.83;8.63;;;3.90;99.90;;;;;;5034581;28;20089;-85
2022/01/10 04:54:54;;;;;;;27.25;10.60;;;3.90;99.90;;;;;;5034763;28;20072;-86
2022/01/10 04:57:19;;;;;;;29.75;9.15;;;3.90;99.90;;;;;;5034572;28;20544;-86
2022/01/10 04:59:45;;;;;;;25.15;9.48;;;3.90;99.90;;;;;;5034274;28;20108;-86
2022/01/10 05:02:11;;;;;;;21.25;8.15;;;3.90;99.90;;;;;;5033363;28;20053;-86
2022/01/10 05:04:37;;;;;;;19.20;7.82;;;3.80;99.90;;;;;;5034499;28;20117;-86
2022/01/10 05:07:03;;;;;;;17.30;7.70;;;3.90;99.90;;;;;;5017937;28;20072;-86
2022/01/10 05:09:29;;;;;;;19.00;7.78;;;3.80;99.90;;;;;;5034474;28;20059;-86
2022/01/10 05:11:55;;;;;;;16.55;6.78;;;3.70;99.80;;;;;;5034304;28;20132;-87
2022/01/10 05:14:21;;;;;;;18.30;7.85;;;3.70;99.80;;;;;;5017452;28;20076;-86
2022/01/10 05:16:47;;;;;;;18.88;8.73;;;3.70;99.80;;;;;;5034427;28;20111;-86
2022/01/10 05:19:12;;;;;;;23.67;8.10;;;3.70;99.90;;;;;;5034405;28;20096;-86
2022/01/10 05:21:39;;;;;;;21.95;8.77;;;3.60;99.90;;;;;;5034556;28;20084;-85
2022/01/10 05:24:05;;;;;;;24.13;8.60;;;3.50;99.90;;;;;;5034479;28;20089;-85
2022/01/10 05:26:30;;;;;;;18.13;8.00;;;3.50;99.90;;;;;;5034240;28;20496;-85
2022/01/10 05:28:56;;;;;;;23.50;8.60;;;3.50;99.90;;;;;;5018518;28;20045;-86
2022/01/10 05:31:22;;;;;;;24.30;9.02;;;3.50;99.90;;;;;;5033637;28;20052;-86
2022/01/10 05:33:48;;;;;;;18.42;7.82;;;3.50;99.90;;;;;;5034039;28;20046;-85
2022/01/10 05:36:14;;;;;;;17.75;7.75;;;3.40;99.90;;;;;;5033842;28;20060;-85
2022/01/10 05:38:40;;;;;;;23.13;8.43;;;3.50;99.90;;;;;;5033957;28;20049;-86
2022/01/10 05:41:06;;;;;;;20.58;8.40;;;3.50;99.90;;;;;;5033569;28;20168;-85
2022/01/10 05:43:31;;;;;;;21.80;9.00;;;3.50;99.90;;;;;;5033581;28;20041;-86
2022/01/10 05:45:58;;;;;;;20.80;8.40;;;3.50;99.90;;;;;;5033625;28;20436;-85
2022/01/10 05:48:29;;;;;;;19.98;8.13;;;3.50;99.90;;;;;;5033396;28;20045;-85
2022/01/10 05:50:55;;;;;;;22.05;8.13;;;3.50;99.90;;;;;;5033532;28;20128;-85
2022/01/10 05:53:21;;;;;;;16.48;8.02;;;3.50;99.90;;;;;;5033786;28;20053;-86
2022/01/10 05:55:48;;;;;;;17.73;8.15;;;3.50;99.90;;;;;;5033480;28;20057;-86
2022/01/10 05:58:14;;;;;;;18.27;7.68;;;3.50;99.90;;;;;;5033524;28;20054;-86
2022/01/10 06:00:40;;;;;;;19.45;9.02;;;3.60;99.90;;;;;;5032951;28;20140;-85
2022/01/10 06:03:07;;;;;;;25.80;10.50;;;3.60;99.90;;;;;;5033394;28;20499;-85
2022/01/10 06:05:33;;;;;;;18.13;8.75;;;3.60;99.90;;;;;;5033578;28;20041;-86
2022/01/10 06:07:59;;;;;;;21.08;8.85;;;3.70;99.90;;;;;;5033228;28;20473;-86
2022/01/10 06:10:26;;;;;;;19.42;8.98;;;3.60;99.90;;;;;;5033213;28;20049;-86
2022/01/10 06:12:53;;;;;;;25.63;9.93;;;3.60;99.90;;;;;;5032964;28;20160;-86
2022/01/10 06:15:19;;;;;;;18.52;8.45;;;3.60;99.90;;;;;;5033543;28;20053;-86
2022/01/10 06:17:45;;;;;;;18.90;8.43;;;3.60;99.90;;;;;;5033297;28;20405;-86
2022/01/10 06:20:11;;;;;;;17.23;8.23;;;3.50;99.80;;;;;;5033221;28;20045;-86
2022/01/10 06:22:37;;;;;;;26.52;10.50;;;3.50;99.70;;;;;;5033145;28;20045;-85
2022/01/10 06:25:04;;;;;;;19.20;9.05;;;3.50;99.80;;;;;;5032971;28;20448;-85
2022/01/10 06:27:30;;;;;;;16.90;8.43;;;3.50;99.90;;;;;;5032818;28;20046;-85
2022/01/10 06:29:56;;;;;;;21.58;8.98;;;3.50;99.90;;;;;;5032465;28;20560;-85
2022/01/10 06:32:22;;;;;;;33.58;12.57;;;3.50;99.90;;;;;;5033030;28;20053;-85
2022/01/10 06:34:47;;;;;;;22.83;9.65;;;3.50;99.90;;;;;;5033238;28;20045;-86
2022/01/10 06:37:13;;;;;;;20.52;8.27;;;3.60;99.90;;;;;;5032627;28;20057;-86
2022/01/10 06:39:40;;;;;;;16.98;8.00;;;3.50;99.50;;;;;;5032850;28;20046;-85
2022/01/10 06:42:06;;;;;;;26.52;10.98;;;3.40;99.60;;;;;;5032806;28;20045;-86
2022/01/10 06:44:31;;;;;;;21.75;9.07;;;3.40;99.90;;;;;;5033045;28;20148;-85
2022/01/10 06:46:57;;;;;;;23.08;8.70;;;3.30;99.90;;;;;;5032909;28;20132;-87
2022/01/10 06:49:23;;;;;;;22.83;9.15;;;3.40;99.90;;;;;;5032816;28;20068;-85
2022/01/10 06:51:49;;;;;;;17.73;8.18;;;3.40;99.90;;;;;;5032499;28;20137;-85
2022/01/10 06:54:15;;;;;;;15.98;8.45;;;3.40;99.90;;;;;;5032883;28;20041;-85
2022/01/10 06:56:41;;;;;;;16.58;7.97;;;3.40;99.90;;;;;;5032699;28;20049;-85
2022/01/10 06:59:08;;;;;;;15.98;7.85;;;3.30;99.70;;;;;;5016228;28;20480;-85
2022/01/10 07:01:34;;;;;;;13.20;7.25;;;3.30;99.70;;;;;;5032281;28;20049;-85
2022/01/10 07:04:00;;;;;;;28.02;9.85;;;3.20;99.80;;;;;;5032811;28;20136;-85
2022/01/10 07:06:26;;;;;;;12.35;6.85;;;3.20;99.90;;;;;;5016020;28;20210;-85
2022/01/10 07:08:53;;;;;;;13.95;8.02;;;3.30;99.90;;;;;;5033340;28;20046;-84
2022/01/10 07:11:18;;;;;;;13.88;7.22;;;3.30;99.90;;;;;;5032411;28;20041;-85
2022/01/10 07:13:44;;;;;;;28.40;11.77;;;3.30;99.90;;;;;;5032223;28;20137;-85
2022/01/10 07:16:10;;;;;;;18.67;9.10;;;3.30;99.90;;;;;;5049044;28;20053;-85
2022/01/10 07:18:36;;;;;;;18.25;8.88;;;3.20;99.90;;;;;;5032438;28;20476;-85
2022/01/10 07:21:02;;;;;;;15.93;8.65;;;3.30;99.90;;;;;;5033315;28;20051;-85
2022/01/10 07:23:27;;;;;;;18.30;7.93;;;3.30;99.90;;;;;;5032369;28;20103;-84
2022/01/10 07:25:53;;;;;;;17.48;8.18;;;3.30;99.90;;;;;;5035203;28;20060;-84
2022/01/10 07:28:19;;;;;;;15.25;8.45;;;3.30;99.90;;;;;;5035903;28;20444;-84
2022/01/10 07:30:44;;;;;;;15.98;7.90;;;3.30;99.90;;;;;;5035986;28;20115;-85
2022/01/10 07:33:10;;;;;;;18.70;8.48;;;3.30;99.90;;;;;;5036074;28;20045;-84
2022/01/10 07:35:36;;;;;;;19.23;9.00;;;3.30;99.90;;;;;;5036152;28;20057;-84
2022/01/10 07:38:02;;;;;;;14.82;7.97;;;3.30;99.90;;;;;;5036160;28;20049;-87
2022/01/10 07:40:27;;;;;;;18.08;7.45;;;3.30;99.90;;;;;;5035856;28;20049;-73
2022/01/10 07:42:53;;;;;;;19.20;8.70;;;3.30;99.70;;;;;;5019271;28;20084;-73
2022/01/10 07:45:19;;;;;;;17.20;8.50;;;3.20;99.90;;;;;;5035751;28;20077;-73
2022/01/10 07:47:45;;;;;;;16.85;8.32;;;3.20;99.80;;;;;;5019226;28;20041;-72
2022/01/10 07:50:10;;;;;;;23.20;9.10;;;3.20;99.90;;;;;;5035561;28;20052;-72
2022/01/10 07:52:37;;;;;;;19.00;9.65;;;3.20;99.90;;;;;;5035606;28;20045;-72
2022/01/10 07:55:04;;;;;;;32.75;13.07;;;3.20;99.90;;;;;;5035514;28;20102;-73
2022/01/10 07:57:29;;;;;;;39.22;15.20;;;3.20;99.90;;;;;;5035822;28;20060;-73
2022/01/10 07:59:55;;;;;;;38.20;16.65;;;3.20;99.90;;;;;;5035041;28;20053;-73
2022/01/10 08:02:21;;;;;;;28.63;14.40;;;3.20;99.90;;;;;;5035122;28;20492;-72
2022/01/10 08:04:48;;;;;;;29.45;12.65;;;3.30;99.90;;;;;;5035403;28;20081;-72
2022/01/10 08:07:14;;;;;;;28.40;12.80;;;3.30;99.90;;;;;;5051742;28;20041;-73
2022/01/10 08:09:40;;;;;;;25.13;12.15;;;3.30;99.80;;;;;;5035395;28;20041;-72
2022/01/10 08:12:06;;;;;;;24.27;11.93;;;3.30;99.90;;;;;;5035269;28;20048;-72
2022/01/10 08:14:33;;;;;;;28.10;12.63;;;3.40;99.80;;;;;;5034970;28;20057;-72
2022/01/10 08:16:59;;;;;;;25.02;11.30;;;3.20;99.50;;;;;;5035084;28;20061;-72
2022/01/10 08:19:31;;;;;;;29.83;12.00;;;3.10;99.60;;;;;;5051746;28;20049;-70
2022/01/10 08:21:57;;;;;;;28.65;11.23;;;3.10;99.80;;;;;;5035203;28;20128;-73
2022/01/10 08:24:24;;;;;;;30.42;11.20;;;3.00;99.90;;;;;;5039201;28;20057;-76
2022/01/10 08:26:52;;;;;;;20.23;10.88;;;3.10;99.90;;;;;;5060233;28;20057;-74
2022/01/10 08:29:19;;;;;;;32.10;10.52;;;3.10;99.90;;;;;;5018373;28;20447;-72
2022/01/10 08:31:45;;;;;;;24.73;11.07;;;3.10;99.90;;;;;;5034480;28;20050;-72
2022/01/10 08:34:11;;;;;;;24.25;10.88;;;3.00;99.90;;;;;;5035069;28;20046;-72
2022/01/10 08:36:37;;;;;;;29.27;11.52;;;3.00;99.90;;;;;;5034822;28;20389;-72
2022/01/10 08:39:04;;;;;;;20.98;10.60;;;3.10;99.90;;;;;;5034665;28;20048;-73
2022/01/10 08:41:29;;;;;;;23.23;11.02;;;3.20;99.90;;;;;;5034581;28;20045;-72
2022/01/10 08:43:55;;;;;;;19.95;11.50;;;3.30;99.90;;;;;;5034833;28;20108;-72
2022/01/10 08:46:21;;;;;;;30.77;13.90;;;3.40;99.90;;;;;;5035610;28;20045;-72
2022/01/10 08:48:47;;;;;;;28.35;13.05;;;3.50;99.90;;;;;;5018028;28;20049;-73
2022/01/10 08:51:13;;;;;;;26.42;12.57;;;3.50;99.90;;;;;;5034441;28;20059;-72
2022/01/10 08:53:39;;;;;;;28.42;13.65;;;3.60;99.90;;;;;;5034367;28;20053;-73
2022/01/10 08:56:05;;;;;;;28.10;12.63;;;3.50;99.90;;;;;;5034721;28;20047;-72
2022/01/10 08:58:33;;;;;;;46.40;16.55;;;3.50;99.90;;;;;;5035333;28;20516;-73
2022/01/10 09:01:01;;;;;;;52.97;18.70;;;3.50;99.90;;;;;;5033866;28;20136;-72
2022/01/10 09:03:27;;;;;;;54.70;19.50;;;3.60;99.90;;;;;;5034245;28;20105;-72
2022/01/10 09:05:55;;;;;;;47.33;18.95;;;3.70;99.90;;;;;;5034331;28;20099;-75
2022/01/10 09:08:23;;;;;;;35.38;16.42;;;3.80;99.90;;;;;;5035196;28;20045;-75
2022/01/10 09:10:49;;;;;;;29.38;15.10;;;3.90;99.90;;;;;;5034145;28;20053;-75
2022/01/10 09:13:15;;;;;;;49.35;19.20;;;3.80;99.90;;;;;;5033735;28;20103;-75
2022/01/10 09:15:40;;;;;;;46.72;18.15;;;3.90;99.90;;;;;;5035029;28;20175;-75
2022/01/10 09:18:06;;;;;;;29.30;13.82;;;4.00;99.90;;;;;;5034021;28;20096;-75
2022/01/10 09:20:32;;;;;;;31.80;15.07;;;4.10;99.90;;;;;;5017384;28;20049;-75
2022/01/10 09:22:58;;;;;;;34.35;16.38;;;4.10;99.90;;;;;;5033948;28;20049;-75
2022/01/10 09:25:24;;;;;;;35.70;15.43;;;4.10;99.90;;;;;;5050523;28;20476;-75
2022/01/10 09:27:50;;;;;;;30.10;14.93;;;4.10;99.90;;;;;;5033749;28;20046;-75
2022/01/10 09:30:16;;;;;;;28.88;14.15;;;4.30;99.90;;;;;;5034653;28;20549;-75
2022/01/10 09:32:41;;;;;;;35.20;16.50;;;4.30;99.90;;;;;;5033645;28;20041;-75
2022/01/10 09:35:08;;;;;;;53.75;20.02;;;4.30;99.90;;;;;;5050245;28;20128;-75
2022/01/10 09:37:34;;;;;;;37.45;16.98;;;4.40;99.90;;;;;;5033603;28;20140;-75
2022/01/10 09:40:00;;;;;;;38.63;16.13;;;4.50;99.90;;;;;;5033671;28;20095;-75
2022/01/10 09:42:26;;;;;;;38.55;17.98;;;4.50;99.90;;;;;;5033589;28;20046;-75
2022/01/10 09:44:52;;;;;;;45.63;20.30;;;4.50;99.90;;;;;;5033649;28;20045;-75
2022/01/10 09:47:18;;;;;;;40.00;17.92;;;4.50;99.90;;;;;;5032663;28;20092;-76
2022/01/10 09:49:43;;;;;;;40.65;18.63;;;4.60;99.90;;;;;;5033408;28;20457;-74
2022/01/10 09:52:10;;;;;;;41.38;20.38;;;4.60;99.90;;;;;;5033531;28;20053;-75
2022/01/10 09:54:36;;;;;;;42.72;19.05;;;4.60;99.90;;;;;;5033708;28;20096;-76
2022/01/10 09:57:02;;;;;;;61.10;23.52;;;4.60;99.90;;;;;;5033275;28;20081;-73
2022/01/10 09:59:29;;;;;;;54.85;21.65;;;4.70;99.90;;;;;;5033123;28;20119;-73
2022/01/10 10:01:54;;;;;;;43.28;19.05;;;4.80;99.90;;;;;;5032809;28;20480;-73
2022/01/10 10:04:21;;;;;;;49.97;21.42;;;4.80;99.90;;;;;;5016955;28;20053;-73
2022/01/10 10:06:47;;;;;;;38.55;19.73;;;4.80;99.90;;;;;;5033100;28;20049;-74
2022/01/10 10:09:13;;;;;;;33.67;17.83;;;4.80;99.70;;;;;;5033045;28;20045;-74
2022/01/10 10:11:42;;;;;;;47.78;22.88;;;4.90;99.80;;;;;;5033018;28;20056;-74
2022/01/10 10:14:09;;;;;;;38.38;19.40;;;4.90;99.90;;;;;;5032625;28;20053;-74
2022/01/10 10:16:36;;;;;;;39.97;19.70;;;4.90;99.90;;;;;;5032840;28;20056;-75
2022/01/10 10:19:06;;;;;;;38.22;18.70;;;4.90;99.90;;;;;;5033956;28;20053;-75
2022/01/10 10:21:33;;;;;;;37.40;17.65;;;5.00;99.90;;;;;;5032629;28;20489;-72
2022/01/10 10:24:00;;;;;;;40.80;21.17;;;5.20;99.90;;;;;;5033178;28;20049;-74
2022/01/10 10:26:27;;;;;;;46.03;21.08;;;5.40;99.90;;;;;;5029840;28;20044;-75
2022/01/10 10:28:55;;;;;;;35.67;19.35;;;5.50;99.90;;;;;;5020931;28;20107;-77
2022/01/10 10:31:48;;;;;;;41.90;20.90;;;5.50;99.90;;;;;;5031933;28;20050;-77
2022/01/10 10:34:22;;;;;;;32.45;17.15;;;5.80;99.90;;;;;;5026142;28;20061;-77
2022/01/10 10:37:12;;;;;;;29.42;15.80;;;6.00;99.80;;;;;;5032875;28;20056;-77
2022/01/10 10:39:43;;;;;;;31.20;16.65;;;6.10;99.10;;;;;;5016332;28;20102;-78
2022/01/10 10:42:12;;;;;;;34.13;17.00;;;6.30;99.10;;;;;;5032444;28;20045;-77
2022/01/10 10:44:39;;;;;;;30.40;15.48;;;6.50;98.90;;;;;;5044169;28;20050;-75
2022/01/10 10:47:05;;;;;;;34.15;16.70;;;6.60;98.60;;;;;;5035679;28;20048;-75
2022/01/10 10:49:39;;;;;;;28.85;15.55;;;6.70;98.70;;;;;;5032430;28;20052;-75
2022/01/10 10:52:08;;;;;;;31.92;16.60;;;6.60;98.80;;;;;;5031270;28;20041;-77
2022/01/10 10:54:35;;;;;;;38.10;17.27;;;6.60;99.40;;;;;;5031973;28;20136;-77
2022/01/10 10:57:06;;;;;;;30.38;17.35;;;6.50;99.40;;;;;;5032460;28;20085;-76
2022/01/10 10:59:36;;;;;;;36.55;17.20;;;6.30;99.80;;;;;;5035010;28;20377;-77
2022/01/10 11:02:03;;;;;;;36.80;18.45;;;6.30;99.90;;;;;;5052747;28;20492;-77
2022/01/10 11:04:30;;;;;;;33.47;16.05;;;6.30;99.90;;;;;;5036479;28;20460;-75
2022/01/10 11:06:57;;;;;;;40.83;17.23;;;6.40;99.90;;;;;;5036958;28;20081;-77
2022/01/10 11:09:24;;;;;;;38.60;18.73;;;6.40;99.90;;;;;;5036599;28;20456;-76
2022/01/10 11:11:50;;;;;;;33.13;15.88;;;6.40;99.90;;;;;;5036408;28;20481;-76
2022/01/10 11:14:18;;;;;;;33.20;16.65;;;6.40;99.90;;;;;;5035802;28;20057;-76
2022/01/10 11:16:46;;;;;;;29.20;16.65;;;6.50;99.90;;;;;;5037246;28;20061;-76
2022/01/10 11:19:25;;;;;;;37.08;17.75;;;6.50;99.70;;;;;;5019417;28;20053;-72
2022/01/10 11:22:11;;;;;;;32.45;17.77;;;6.40;99.90;;;;;;5037044;28;20049;-73
2022/01/10 11:24:50;;;;;;;30.83;15.32;;;6.50;99.90;;;;;;5035434;28;20054;-75
2022/01/10 11:27:36;;;;;;;33.25;16.73;;;6.70;99.90;;;;;;5036056;28;20092;-74
2022/01/10 11:30:24;;;;;;;34.65;17.20;;;6.80;99.70;;;;;;5036569;28;20466;-75
2022/01/10 11:32:54;;;;;;;27.73;16.48;;;6.90;99.90;;;;;;5035919;28;20107;-75
2022/01/10 11:35:20;;;;;;;36.92;18.98;;;7.10;99.90;;;;;;5035959;28;20060;-74
2022/01/10 11:37:46;;;;;;;33.97;17.35;;;7.40;99.60;;;;;;5035876;28;20132;-78
2022/01/10 11:40:14;;;;;;;34.20;17.40;;;7.60;99.30;;;;;;5023492;28;20091;-78
2022/01/10 11:43:01;;;;;;;28.73;16.65;;;7.80;99.00;;;;;;5053181;28;20443;-80
2022/01/10 11:45:26;;;;;;;35.83;17.23;;;8.00;99.00;;;;;;5036274;28;20088;-78
2022/01/10 11:48:01;;;;;;;32.95;17.50;;;8.20;98.70;;;;;;5035515;28;20081;-77
2022/01/10 11:50:29;;;;;;;35.80;16.70;;;8.10;98.80;;;;;;5035757;28;20132;-77
2022/01/10 11:53:00;;;;;;;33.38;15.85;;;8.10;98.90;;;;;;5035440;28;20057;-77
2022/01/10 11:55:41;;;;;;;25.48;13.77;;;8.50;98.90;;;;;;5035963;28;20493;-77
2022/01/10 11:58:29;;;;;;;27.73;14.20;;;9.00;98.30;;;;;;5038980;28;20096;-76
2022/01/10 12:01:05;;;;;;;28.38;14.98;;;9.40;97.80;;;;;;5037449;28;20049;-75
2022/01/10 12:03:31;;;;;;;27.38;14.27;;;9.60;97.40;;;;;;5035792;28;20057;-75
2022/01/10 12:05:57;;;;;;;37.85;16.40;;;9.50;97.40;;;;;;5035331;28;20134;-77
2022/01/10 12:08:23;;;;;;;28.23;15.25;;;9.40;97.70;;;;;;5036174;28;20132;-76
2022/01/10 12:10:49;;;;;;;27.83;14.40;;;9.50;98.00;;;;;;5034855;28;20133;-76
2022/01/10 12:13:15;;;;;;;28.27;13.55;;;9.70;97.70;;;;;;5034866;28;20049;-76
2022/01/10 12:15:41;;;;;;;21.48;12.20;;;10.20;97.30;;;;;;5051765;28;20084;-75
2022/01/10 12:18:08;;;;;;;22.13;12.90;;;10.80;97.00;;;;;;5034762;28;20045;-76
2022/01/10 12:20:34;;;;;;;26.40;12.07;;;11.20;96.40;;;;;;5035037;28;20145;-76
2022/01/10 12:23:00;;;;;;;22.25;12.57;;;11.60;96.10;;;;;;5035096;28;20050;-75
2022/01/10 12:25:26;;;;;;;24.30;11.82;;;11.90;95.70;;;;;;5034992;28;20392;-75
2022/01/10 12:27:54;;;;;;;24.05;11.35;;;12.20;95.30;;;;;;5034656;28;20468;-75
2022/01/10 12:30:21;;;;;;;18.73;10.15;;;12.40;94.90;;;;;;5034428;28;20507;-74
2022/01/10 12:32:47;;;;;;;28.42;10.68;;;12.50;94.80;;;;;;5034886;28;20076;-74
2022/01/10 12:35:13;;;;;;;27.83;11.65;;;12.60;94.60;;;;;;5034738;28;20136;-75
2022/01/10 12:37:39;;;;;;;21.75;11.02;;;12.50;94.30;;;;;;5034793;28;20132;-74
2022/01/10 12:40:06;;;;;;;21.40;11.02;;;12.50;94.60;;;;;;5035599;28;20048;-74
2022/01/10 12:42:31;;;;;;;22.90;10.63;;;12.50;94.70;;;;;;5035778;28;20132;-74
2022/01/10 12:44:57;;;;;;;24.83;10.05;;;12.60;94.30;;;;;;5034657;28;20133;-74
2022/01/10 12:47:24;;;;;;;18.15;9.73;;;12.60;93.80;;;;;;5035430;28;20484;-74
2022/01/10 12:49:51;;;;;;;20.10;9.95;;;12.50;94.50;;;;;;5034243;28;20052;-75
2022/01/10 12:52:17;;;;;;;17.95;9.13;;;12.90;94.40;;;;;;5035497;28;20049;-75
2022/01/10 12:54:43;;;;;;;19.63;9.63;;;13.50;94.10;;;;;;5034507;28;20057;-75
2022/01/10 12:57:09;;;;;;;16.30;9.10;;;13.80;93.80;;;;;;5034456;28;20436;-75